sensor_id;sensor_type;location;lat;lon;timestamp;P1;durP1;ratioP1;P2;durP2;ratioP2
12925;SDS011;6529;50.566;9.774;2023-07-31T00:01:03;3.83;;;1.50;;
12925;SDS011;6529;50.566;9.774;2023-07-31T00:03:28;4.47;;;1.77;;
12925;SDS011;6529;50.566;9.774;2023-07-31T00:05:54;3.83;;;1.77;;
12925;SDS011;6529;50.566;9.774;2023-07-31T00:08:19;5.70;;;2.10;;
12925;SDS011;6529;50.566;9.774;2023-07-31T00:10:45;5.97;;;1.87;;
12925;SDS011;6529;50.566;9.774;2023-07-31T00:13:10;3.23;;;1.57;;
12925;SDS011;6529;50.566;9.774;2023-07-31T00:15:36;3.90;;;1.77;;
12925;SDS011;6529;50.566;9.774;2023-07-31T00:18:01;3.03;;;1.70;;
12925;SDS011;6529;50.566;9.774;2023-07-31T00:20:27;2.97;;;1.53;;
12925;SDS011;6529;50.566;9.774;2023-07-31T00:22:52;4.97;;;1.90;;
12925;SDS011;6529;50.566;9.774;2023-07-31T00:25:18;3.27;;;1.73;;
12925;SDS011;6529;50.566;9.774;2023-07-31T00:27:44;5.93;;;2.10;;
12925;SDS011;6529;50.566;9.774;2023-07-31T00:30:11;4.67;;;1.70;;
12925;SDS011;6529;50.566;9.774;2023-07-31T00:32:36;3.80;;;1.93;;
12925;SDS011;6529;50.566;9.774;2023-07-31T00:35:02;4.27;;;1.93;;
12925;SDS011;6529;50.566;9.774;2023-07-31T00:37:28;3.33;;;1.57;;
12925;SDS011;6529;50.566;9.774;2023-07-31T00:39:53;3.23;;;1.70;;
12925;SDS011;6529;50.566;9.774;2023-07-31T00:42:19;2.53;;;1.50;;
12925;SDS011;6529;50.566;9.774;2023-07-31T00:44:44;9.70;;;2.00;;
12925;SDS011;6529;50.566;9.774;2023-07-31T00:47:10;3.93;;;1.70;;
12925;SDS011;6529;50.566;9.774;2023-07-31T00:49:35;4.47;;;1.60;;
12925;SDS011;6529;50.566;9.774;2023-07-31T00:52:01;4.87;;;2.10;;
12925;SDS011;6529;50.566;9.774;2023-07-31T00:54:27;3.50;;;1.70;;
12925;SDS011;6529;50.566;9.774;2023-07-31T00:56:53;4.10;;;1.60;;
12925;SDS011;6529;50.566;9.774;2023-07-31T00:59:20;4.77;;;1.83;;
12925;SDS011;6529;50.566;9.774;2023-07-31T01:01:45;3.37;;;1.67;;
12925;SDS011;6529;50.566;9.774;2023-07-31T01:04:12;3.13;;;1.90;;
12925;SDS011;6529;50.566;9.774;2023-07-31T01:09:19;4.23;;;2.13;;
12925;SDS011;6529;50.566;9.774;2023-07-31T01:12:10;2.93;;;1.70;;
12925;SDS011;6529;50.566;9.774;2023-07-31T01:14:39;3.03;;;1.67;;
12925;SDS011;6529;50.566;9.774;2023-07-31T01:17:05;3.57;;;1.77;;
12925;SDS011;6529;50.566;9.774;2023-07-31T01:19:30;3.17;;;1.80;;
12925;SDS011;6529;50.566;9.774;2023-07-31T01:24:28;4.30;;;2.40;;
12925;SDS011;6529;50.566;9.774;2023-07-31T01:27:06;2.63;;;1.80;;
12925;SDS011;6529;50.566;9.774;2023-07-31T01:29:46;4.03;;;1.80;;
12925;SDS011;6529;50.566;9.774;2023-07-31T01:32:22;3.97;;;1.90;;
12925;SDS011;6529;50.566;9.774;2023-07-31T01:34:49;5.07;;;1.97;;
12925;SDS011;6529;50.566;9.774;2023-07-31T01:37:15;4.00;;;1.90;;
12925;SDS011;6529;50.566;9.774;2023-07-31T01:39:41;3.47;;;1.60;;
12925;SDS011;6529;50.566;9.774;2023-07-31T01:42:06;4.87;;;1.97;;
12925;SDS011;6529;50.566;9.774;2023-07-31T01:44:32;3.10;;;2.00;;
12925;SDS011;6529;50.566;9.774;2023-07-31T01:46:58;6.00;;;2.13;;
12925;SDS011;6529;50.566;9.774;2023-07-31T01:49:25;3.30;;;2.00;;
12925;SDS011;6529;50.566;9.774;2023-07-31T01:51:51;3.90;;;1.90;;
12925;SDS011;6529;50.566;9.774;2023-07-31T01:54:16;3.80;;;2.10;;
12925;SDS011;6529;50.566;9.774;2023-07-31T01:56:42;3.10;;;2.10;;
12925;SDS011;6529;50.566;9.774;2023-07-31T01:59:07;4.27;;;1.70;;
12925;SDS011;6529;50.566;9.774;2023-07-31T02:01:33;3.00;;;1.77;;
12925;SDS011;6529;50.566;9.774;2023-07-31T02:03:58;5.43;;;1.90;;
12925;SDS011;6529;50.566;9.774;2023-07-31T02:06:24;3.63;;;2.00;;
12925;SDS011;6529;50.566;9.774;2023-07-31T02:08:50;3.90;;;2.10;;
12925;SDS011;6529;50.566;9.774;2023-07-31T02:11:15;3.83;;;2.20;;
12925;SDS011;6529;50.566;9.774;2023-07-31T02:13:41;3.07;;;2.00;;
12925;SDS011;6529;50.566;9.774;2023-07-31T02:16:06;3.77;;;1.70;;
12925;SDS011;6529;50.566;9.774;2023-07-31T02:18:33;3.20;;;2.03;;
12925;SDS011;6529;50.566;9.774;2023-07-31T02:20:59;3.97;;;2.00;;
12925;SDS011;6529;50.566;9.774;2023-07-31T02:23:24;5.23;;;2.30;;
12925;SDS011;6529;50.566;9.774;2023-07-31T02:25:50;4.00;;;2.00;;
12925;SDS011;6529;50.566;9.774;2023-07-31T02:28:15;5.10;;;1.87;;
12925;SDS011;6529;50.566;9.774;2023-07-31T02:30:43;3.10;;;2.20;;
12925;SDS011;6529;50.566;9.774;2023-07-31T02:33:11;4.10;;;2.10;;
12925;SDS011;6529;50.566;9.774;2023-07-31T02:35:36;4.13;;;2.27;;
12925;SDS011;6529;50.566;9.774;2023-07-31T02:38:02;3.30;;;1.90;;
12925;SDS011;6529;50.566;9.774;2023-07-31T02:40:27;6.93;;;2.30;;
12925;SDS011;6529;50.566;9.774;2023-07-31T02:42:53;4.13;;;2.10;;
12925;SDS011;6529;50.566;9.774;2023-07-31T02:45:18;6.17;;;2.17;;
12925;SDS011;6529;50.566;9.774;2023-07-31T02:47:44;4.00;;;2.10;;
12925;SDS011;6529;50.566;9.774;2023-07-31T02:50:10;3.20;;;1.80;;
12925;SDS011;6529;50.566;9.774;2023-07-31T02:52:35;2.87;;;1.90;;
12925;SDS011;6529;50.566;9.774;2023-07-31T02:55:01;2.53;;;1.80;;
12925;SDS011;6529;50.566;9.774;2023-07-31T02:57:26;3.20;;;2.17;;
12925;SDS011;6529;50.566;9.774;2023-07-31T02:59:52;3.40;;;2.00;;
12925;SDS011;6529;50.566;9.774;2023-07-31T03:02:17;4.13;;;1.90;;
12925;SDS011;6529;50.566;9.774;2023-07-31T03:04:43;3.07;;;2.20;;
12925;SDS011;6529;50.566;9.774;2023-07-31T03:07:09;2.73;;;2.07;;
12925;SDS011;6529;50.566;9.774;2023-07-31T03:09:34;3.13;;;1.90;;
12925;SDS011;6529;50.566;9.774;2023-07-31T03:12:00;4.63;;;1.93;;
12925;SDS011;6529;50.566;9.774;2023-07-31T03:14:25;5.00;;;2.10;;
12925;SDS011;6529;50.566;9.774;2023-07-31T03:16:54;4.80;;;2.00;;
12925;SDS011;6529;50.566;9.774;2023-07-31T03:19:19;3.63;;;1.90;;
12925;SDS011;6529;50.566;9.774;2023-07-31T03:21:45;4.27;;;1.97;;
12925;SDS011;6529;50.566;9.774;2023-07-31T03:24:10;4.47;;;1.90;;
12925;SDS011;6529;50.566;9.774;2023-07-31T03:26:37;4.17;;;2.00;;
12925;SDS011;6529;50.566;9.774;2023-07-31T03:29:03;2.70;;;1.93;;
12925;SDS011;6529;50.566;9.774;2023-07-31T03:31:28;4.33;;;1.97;;
12925;SDS011;6529;50.566;9.774;2023-07-31T03:33:54;3.60;;;2.10;;
12925;SDS011;6529;50.566;9.774;2023-07-31T03:36:20;3.93;;;2.17;;
12925;SDS011;6529;50.566;9.774;2023-07-31T03:38:46;4.83;;;2.00;;
12925;SDS011;6529;50.566;9.774;2023-07-31T03:41:11;4.03;;;1.90;;
12925;SDS011;6529;50.566;9.774;2023-07-31T03:43:37;3.60;;;2.10;;
12925;SDS011;6529;50.566;9.774;2023-07-31T03:46:03;3.50;;;1.87;;
12925;SDS011;6529;50.566;9.774;2023-07-31T03:48:28;2.90;;;2.10;;
12925;SDS011;6529;50.566;9.774;2023-07-31T03:50:54;4.23;;;2.20;;
12925;SDS011;6529;50.566;9.774;2023-07-31T03:53:20;7.70;;;2.10;;
12925;SDS011;6529;50.566;9.774;2023-07-31T03:55:46;3.67;;;1.83;;
12925;SDS011;6529;50.566;9.774;2023-07-31T03:58:11;3.33;;;2.07;;
12925;SDS011;6529;50.566;9.774;2023-07-31T04:00:37;3.57;;;2.17;;
12925;SDS011;6529;50.566;9.774;2023-07-31T04:03:02;4.83;;;1.93;;
12925;SDS011;6529;50.566;9.774;2023-07-31T04:05:30;5.73;;;2.10;;
12925;SDS011;6529;50.566;9.774;2023-07-31T04:07:57;3.33;;;2.00;;
12925;SDS011;6529;50.566;9.774;2023-07-31T04:10:22;3.33;;;1.93;;
12925;SDS011;6529;50.566;9.774;2023-07-31T04:12:48;4.47;;;2.50;;
12925;SDS011;6529;50.566;9.774;2023-07-31T04:15:13;4.80;;;2.27;;
12925;SDS011;6529;50.566;9.774;2023-07-31T04:17:39;2.80;;;1.93;;
12925;SDS011;6529;50.566;9.774;2023-07-31T04:20:05;3.40;;;2.40;;
12925;SDS011;6529;50.566;9.774;2023-07-31T04:22:31;5.23;;;2.23;;
12925;SDS011;6529;50.566;9.774;2023-07-31T04:24:56;2.77;;;2.07;;
12925;SDS011;6529;50.566;9.774;2023-07-31T04:27:22;3.80;;;2.30;;
12925;SDS011;6529;50.566;9.774;2023-07-31T04:29:47;3.17;;;2.00;;
12925;SDS011;6529;50.566;9.774;2023-07-31T04:32:13;3.27;;;2.10;;
12925;SDS011;6529;50.566;9.774;2023-07-31T04:34:41;4.27;;;2.17;;
12925;SDS011;6529;50.566;9.774;2023-07-31T04:37:07;5.33;;;2.70;;
12925;SDS011;6529;50.566;9.774;2023-07-31T04:39:32;4.00;;;2.30;;
12925;SDS011;6529;50.566;9.774;2023-07-31T04:41:58;4.33;;;2.33;;
12925;SDS011;6529;50.566;9.774;2023-07-31T04:44:23;3.87;;;2.13;;
12925;SDS011;6529;50.566;9.774;2023-07-31T04:46:49;4.53;;;2.40;;
12925;SDS011;6529;50.566;9.774;2023-07-31T04:49:15;5.13;;;2.40;;
12925;SDS011;6529;50.566;9.774;2023-07-31T04:51:40;3.40;;;2.13;;
12925;SDS011;6529;50.566;9.774;2023-07-31T04:54:06;4.23;;;1.97;;
12925;SDS011;6529;50.566;9.774;2023-07-31T04:56:31;4.53;;;2.40;;
12925;SDS011;6529;50.566;9.774;2023-07-31T04:58:57;4.50;;;2.30;;
12925;SDS011;6529;50.566;9.774;2023-07-31T05:01:22;3.30;;;1.73;;
12925;SDS011;6529;50.566;9.774;2023-07-31T05:03:48;4.90;;;2.07;;
12925;SDS011;6529;50.566;9.774;2023-07-31T05:06:13;4.07;;;2.20;;
12925;SDS011;6529;50.566;9.774;2023-07-31T05:08:40;5.20;;;2.10;;
12925;SDS011;6529;50.566;9.774;2023-07-31T05:11:05;3.50;;;2.10;;
12925;SDS011;6529;50.566;9.774;2023-07-31T05:13:31;4.03;;;1.90;;
12925;SDS011;6529;50.566;9.774;2023-07-31T05:15:57;4.37;;;2.17;;
12925;SDS011;6529;50.566;9.774;2023-07-31T05:18:22;4.40;;;2.20;;
12925;SDS011;6529;50.566;9.774;2023-07-31T05:20:48;3.77;;;2.20;;
12925;SDS011;6529;50.566;9.774;2023-07-31T05:23:13;4.33;;;2.70;;
12925;SDS011;6529;50.566;9.774;2023-07-31T05:25:39;5.57;;;2.50;;
12925;SDS011;6529;50.566;9.774;2023-07-31T05:28:05;4.77;;;2.17;;
12925;SDS011;6529;50.566;9.774;2023-07-31T05:30:30;4.27;;;2.27;;
12925;SDS011;6529;50.566;9.774;2023-07-31T05:32:56;5.23;;;2.20;;
12925;SDS011;6529;50.566;9.774;2023-07-31T05:35:22;5.20;;;2.37;;
12925;SDS011;6529;50.566;9.774;2023-07-31T05:37:47;4.57;;;2.53;;
12925;SDS011;6529;50.566;9.774;2023-07-31T05:40:13;4.47;;;2.30;;
12925;SDS011;6529;50.566;9.774;2023-07-31T05:42:39;4.33;;;2.27;;
12925;SDS011;6529;50.566;9.774;2023-07-31T05:45:08;4.37;;;2.10;;
12925;SDS011;6529;50.566;9.774;2023-07-31T05:47:34;3.83;;;2.60;;
12925;SDS011;6529;50.566;9.774;2023-07-31T05:50:00;3.70;;;2.40;;
12925;SDS011;6529;50.566;9.774;2023-07-31T05:52:26;3.70;;;2.00;;
12925;SDS011;6529;50.566;9.774;2023-07-31T05:54:52;5.07;;;2.00;;
12925;SDS011;6529;50.566;9.774;2023-07-31T05:57:18;3.23;;;2.30;;
12925;SDS011;6529;50.566;9.774;2023-07-31T05:59:43;4.13;;;2.30;;
12925;SDS011;6529;50.566;9.774;2023-07-31T06:02:09;3.63;;;2.30;;
12925;SDS011;6529;50.566;9.774;2023-07-31T06:04:34;4.67;;;2.23;;
12925;SDS011;6529;50.566;9.774;2023-07-31T06:07:00;5.27;;;2.30;;
12925;SDS011;6529;50.566;9.774;2023-07-31T06:09:25;5.13;;;2.17;;
12925;SDS011;6529;50.566;9.774;2023-07-31T06:11:51;3.87;;;2.03;;
12925;SDS011;6529;50.566;9.774;2023-07-31T06:14:17;3.27;;;2.10;;
12925;SDS011;6529;50.566;9.774;2023-07-31T06:16:42;2.73;;;2.43;;
12925;SDS011;6529;50.566;9.774;2023-07-31T06:19:09;3.33;;;2.00;;
12925;SDS011;6529;50.566;9.774;2023-07-31T06:21:34;4.30;;;2.67;;
12925;SDS011;6529;50.566;9.774;2023-07-31T06:24:02;3.87;;;2.33;;
12925;SDS011;6529;50.566;9.774;2023-07-31T06:26:28;5.40;;;2.30;;
12925;SDS011;6529;50.566;9.774;2023-07-31T06:28:54;4.83;;;2.50;;
12925;SDS011;6529;50.566;9.774;2023-07-31T06:31:19;3.60;;;2.07;;
12925;SDS011;6529;50.566;9.774;2023-07-31T06:33:48;5.47;;;2.27;;
12925;SDS011;6529;50.566;9.774;2023-07-31T06:36:14;3.00;;;2.13;;
12925;SDS011;6529;50.566;9.774;2023-07-31T06:38:39;3.20;;;2.20;;
12925;SDS011;6529;50.566;9.774;2023-07-31T06:41:05;5.17;;;2.47;;
12925;SDS011;6529;50.566;9.774;2023-07-31T06:43:30;4.03;;;2.40;;
12925;SDS011;6529;50.566;9.774;2023-07-31T06:45:56;5.90;;;2.70;;
12925;SDS011;6529;50.566;9.774;2023-07-31T06:48:21;4.73;;;2.20;;
12925;SDS011;6529;50.566;9.774;2023-07-31T06:50:47;6.33;;;2.43;;
12925;SDS011;6529;50.566;9.774;2023-07-31T06:53:13;4.33;;;2.33;;
12925;SDS011;6529;50.566;9.774;2023-07-31T06:55:38;2.87;;;2.20;;
12925;SDS011;6529;50.566;9.774;2023-07-31T06:58:04;4.87;;;2.40;;
12925;SDS011;6529;50.566;9.774;2023-07-31T07:00:29;5.57;;;2.50;;
12925;SDS011;6529;50.566;9.774;2023-07-31T07:02:55;4.73;;;2.50;;
12925;SDS011;6529;50.566;9.774;2023-07-31T07:05:21;4.40;;;2.53;;
12925;SDS011;6529;50.566;9.774;2023-07-31T07:07:49;3.67;;;2.20;;
12925;SDS011;6529;50.566;9.774;2023-07-31T07:10:15;5.97;;;2.13;;
12925;SDS011;6529;50.566;9.774;2023-07-31T07:12:40;5.90;;;2.50;;
12925;SDS011;6529;50.566;9.774;2023-07-31T07:15:06;5.27;;;2.37;;
12925;SDS011;6529;50.566;9.774;2023-07-31T07:17:33;4.70;;;2.50;;
12925;SDS011;6529;50.566;9.774;2023-07-31T07:19:59;4.53;;;2.27;;
12925;SDS011;6529;50.566;9.774;2023-07-31T07:22:25;5.70;;;2.60;;
12925;SDS011;6529;50.566;9.774;2023-07-31T07:24:52;7.33;;;2.50;;
12925;SDS011;6529;50.566;9.774;2023-07-31T07:27:18;4.47;;;2.40;;
12925;SDS011;6529;50.566;9.774;2023-07-31T07:29:43;5.03;;;2.43;;
12925;SDS011;6529;50.566;9.774;2023-07-31T07:32:09;4.93;;;2.10;;
12925;SDS011;6529;50.566;9.774;2023-07-31T07:34:34;7.60;;;2.97;;
12925;SDS011;6529;50.566;9.774;2023-07-31T07:37:00;3.80;;;2.50;;
12925;SDS011;6529;50.566;9.774;2023-07-31T07:39:26;4.80;;;2.40;;
12925;SDS011;6529;50.566;9.774;2023-07-31T07:41:51;4.03;;;2.53;;
12925;SDS011;6529;50.566;9.774;2023-07-31T07:44:18;7.97;;;2.70;;
12925;SDS011;6529;50.566;9.774;2023-07-31T07:46:44;6.00;;;2.50;;
12925;SDS011;6529;50.566;9.774;2023-07-31T07:49:09;4.97;;;2.70;;
12925;SDS011;6529;50.566;9.774;2023-07-31T07:51:35;4.93;;;2.30;;
12925;SDS011;6529;50.566;9.774;2023-07-31T07:54:00;6.50;;;2.67;;
12925;SDS011;6529;50.566;9.774;2023-07-31T07:56:26;5.00;;;2.80;;
12925;SDS011;6529;50.566;9.774;2023-07-31T07:58:52;4.93;;;2.30;;
12925;SDS011;6529;50.566;9.774;2023-07-31T08:01:19;4.33;;;2.37;;
12925;SDS011;6529;50.566;9.774;2023-07-31T08:03:45;5.90;;;2.43;;
12925;SDS011;6529;50.566;9.774;2023-07-31T08:06:10;4.40;;;2.50;;
12925;SDS011;6529;50.566;9.774;2023-07-31T08:08:36;4.60;;;2.17;;
12925;SDS011;6529;50.566;9.774;2023-07-31T08:11:02;5.07;;;2.27;;
12925;SDS011;6529;50.566;9.774;2023-07-31T08:13:28;5.13;;;2.37;;
12925;SDS011;6529;50.566;9.774;2023-07-31T08:15:54;5.50;;;2.50;;
12925;SDS011;6529;50.566;9.774;2023-07-31T08:18:20;6.10;;;2.50;;
12925;SDS011;6529;50.566;9.774;2023-07-31T08:20:45;5.83;;;2.47;;
12925;SDS011;6529;50.566;9.774;2023-07-31T08:23:11;5.60;;;2.70;;
12925;SDS011;6529;50.566;9.774;2023-07-31T08:25:37;7.37;;;2.60;;
12925;SDS011;6529;50.566;9.774;2023-07-31T08:28:03;7.17;;;3.13;;
12925;SDS011;6529;50.566;9.774;2023-07-31T08:30:29;6.23;;;2.87;;
12925;SDS011;6529;50.566;9.774;2023-07-31T08:32:55;5.03;;;2.60;;
12925;SDS011;6529;50.566;9.774;2023-07-31T08:35:21;5.77;;;2.47;;
12925;SDS011;6529;50.566;9.774;2023-07-31T08:37:47;4.43;;;2.50;;
12925;SDS011;6529;50.566;9.774;2023-07-31T08:40:12;4.93;;;2.57;;
12925;SDS011;6529;50.566;9.774;2023-07-31T08:42:43;6.77;;;2.70;;
12925;SDS011;6529;50.566;9.774;2023-07-31T08:45:09;5.27;;;2.53;;
12925;SDS011;6529;50.566;9.774;2023-07-31T08:47:38;6.43;;;3.10;;
12925;SDS011;6529;50.566;9.774;2023-07-31T08:50:04;4.10;;;2.53;;
12925;SDS011;6529;50.566;9.774;2023-07-31T08:52:31;4.13;;;2.60;;
12925;SDS011;6529;50.566;9.774;2023-07-31T08:54:57;3.70;;;2.50;;
12925;SDS011;6529;50.566;9.774;2023-07-31T08:57:22;4.87;;;2.70;;
12925;SDS011;6529;50.566;9.774;2023-07-31T08:59:49;4.27;;;2.57;;
12925;SDS011;6529;50.566;9.774;2023-07-31T09:02:15;3.47;;;2.40;;
12925;SDS011;6529;50.566;9.774;2023-07-31T09:04:43;4.73;;;2.63;;
12925;SDS011;6529;50.566;9.774;2023-07-31T09:07:09;6.20;;;2.90;;
12925;SDS011;6529;50.566;9.774;2023-07-31T09:09:38;4.10;;;2.50;;
12925;SDS011;6529;50.566;9.774;2023-07-31T09:12:04;4.90;;;2.67;;
12925;SDS011;6529;50.566;9.774;2023-07-31T09:14:30;7.97;;;3.07;;
12925;SDS011;6529;50.566;9.774;2023-07-31T09:16:57;6.10;;;2.80;;
12925;SDS011;6529;50.566;9.774;2023-07-31T09:19:25;5.40;;;2.73;;
12925;SDS011;6529;50.566;9.774;2023-07-31T09:21:59;3.57;;;2.53;;
12925;SDS011;6529;50.566;9.774;2023-07-31T09:24:26;5.57;;;2.70;;
12925;SDS011;6529;50.566;9.774;2023-07-31T09:26:56;3.27;;;2.37;;
12925;SDS011;6529;50.566;9.774;2023-07-31T09:29:24;8.23;;;3.13;;
12925;SDS011;6529;50.566;9.774;2023-07-31T09:31:51;11.23;;;4.40;;
12925;SDS011;6529;50.566;9.774;2023-07-31T09:34:17;5.10;;;2.90;;
12925;SDS011;6529;50.566;9.774;2023-07-31T09:36:44;5.50;;;2.37;;
12925;SDS011;6529;50.566;9.774;2023-07-31T09:39:10;5.00;;;2.60;;
12925;SDS011;6529;50.566;9.774;2023-07-31T09:41:40;3.73;;;2.60;;
12925;SDS011;6529;50.566;9.774;2023-07-31T09:44:07;4.37;;;3.00;;
12925;SDS011;6529;50.566;9.774;2023-07-31T09:46:36;5.53;;;2.63;;
12925;SDS011;6529;50.566;9.774;2023-07-31T09:49:09;4.53;;;2.50;;
12925;SDS011;6529;50.566;9.774;2023-07-31T09:51:36;5.53;;;2.53;;
12925;SDS011;6529;50.566;9.774;2023-07-31T09:54:15;6.20;;;2.70;;
12925;SDS011;6529;50.566;9.774;2023-07-31T09:56:42;5.10;;;2.70;;
12925;SDS011;6529;50.566;9.774;2023-07-31T09:59:11;5.03;;;2.60;;
12925;SDS011;6529;50.566;9.774;2023-07-31T10:01:38;4.67;;;2.50;;
12925;SDS011;6529;50.566;9.774;2023-07-31T10:04:05;5.63;;;2.73;;
12925;SDS011;6529;50.566;9.774;2023-07-31T10:06:34;5.60;;;2.33;;
12925;SDS011;6529;50.566;9.774;2023-07-31T10:09:01;4.03;;;2.60;;
12925;SDS011;6529;50.566;9.774;2023-07-31T10:11:31;5.43;;;2.88;;
12925;SDS011;6529;50.566;9.774;2023-07-31T10:14:03;3.72;;;2.45;;
12925;SDS011;6529;50.566;9.774;2023-07-31T10:16:30;5.70;;;2.60;;
12925;SDS011;6529;50.566;9.774;2023-07-31T10:18:56;4.30;;;2.70;;
12925;SDS011;6529;50.566;9.774;2023-07-31T10:21:23;3.93;;;2.43;;
12925;SDS011;6529;50.566;9.774;2023-07-31T10:23:48;4.73;;;2.53;;
12925;SDS011;6529;50.566;9.774;2023-07-31T10:26:16;3.83;;;2.37;;
12925;SDS011;6529;50.566;9.774;2023-07-31T10:28:42;5.40;;;2.83;;
12925;SDS011;6529;50.566;9.774;2023-07-31T10:31:10;5.17;;;2.63;;
12925;SDS011;6529;50.566;9.774;2023-07-31T10:33:35;5.97;;;2.60;;
12925;SDS011;6529;50.566;9.774;2023-07-31T10:36:20;3.90;;;2.40;;
12925;SDS011;6529;50.566;9.774;2023-07-31T10:38:48;5.57;;;2.93;;
12925;SDS011;6529;50.566;9.774;2023-07-31T10:41:15;4.80;;;2.90;;
12925;SDS011;6529;50.566;9.774;2023-07-31T10:43:41;5.03;;;2.93;;
12925;SDS011;6529;50.566;9.774;2023-07-31T10:46:07;5.67;;;2.53;;
12925;SDS011;6529;50.566;9.774;2023-07-31T10:48:34;4.70;;;2.73;;
12925;SDS011;6529;50.566;9.774;2023-07-31T10:51:02;4.63;;;2.70;;
12925;SDS011;6529;50.566;9.774;2023-07-31T10:53:33;4.57;;;2.90;;
12925;SDS011;6529;50.566;9.774;2023-07-31T10:56:02;3.97;;;2.60;;
12925;SDS011;6529;50.566;9.774;2023-07-31T10:58:29;5.83;;;3.07;;
12925;SDS011;6529;50.566;9.774;2023-07-31T11:00:57;7.27;;;3.10;;
12925;SDS011;6529;50.566;9.774;2023-07-31T11:03:40;4.57;;;3.00;;
12925;SDS011;6529;50.566;9.774;2023-07-31T11:06:22;6.43;;;2.77;;
12925;SDS011;6529;50.566;9.774;2023-07-31T11:08:48;5.20;;;2.90;;
12925;SDS011;6529;50.566;9.774;2023-07-31T11:11:16;4.53;;;2.87;;
12925;SDS011;6529;50.566;9.774;2023-07-31T11:13:50;5.80;;;2.87;;
12925;SDS011;6529;50.566;9.774;2023-07-31T11:16:18;5.23;;;2.77;;
12925;SDS011;6529;50.566;9.774;2023-07-31T11:18:46;4.57;;;2.70;;
12925;SDS011;6529;50.566;9.774;2023-07-31T11:21:14;6.67;;;3.10;;
12925;SDS011;6529;50.566;9.774;2023-07-31T11:23:39;5.13;;;3.13;;
12925;SDS011;6529;50.566;9.774;2023-07-31T11:26:06;5.83;;;2.90;;
12925;SDS011;6529;50.566;9.774;2023-07-31T11:28:33;6.33;;;2.97;;
12925;SDS011;6529;50.566;9.774;2023-07-31T11:31:00;5.47;;;2.90;;
12925;SDS011;6529;50.566;9.774;2023-07-31T11:33:26;5.67;;;2.83;;
12925;SDS011;6529;50.566;9.774;2023-07-31T11:35:52;5.03;;;3.00;;
12925;SDS011;6529;50.566;9.774;2023-07-31T11:38:27;3.87;;;2.50;;
12925;SDS011;6529;50.566;9.774;2023-07-31T11:40:57;4.13;;;2.73;;
12925;SDS011;6529;50.566;9.774;2023-07-31T11:43:32;4.70;;;2.90;;
12925;SDS011;6529;50.566;9.774;2023-07-31T11:45:59;4.53;;;2.57;;
12925;SDS011;6529;50.566;9.774;2023-07-31T11:50:58;6.53;;;2.83;;
12925;SDS011;6529;50.566;9.774;2023-07-31T11:53:26;4.60;;;3.30;;
12925;SDS011;6529;50.566;9.774;2023-07-31T11:56:05;4.23;;;2.60;;
12925;SDS011;6529;50.566;9.774;2023-07-31T11:58:34;3.67;;;2.90;;
12925;SDS011;6529;50.566;9.774;2023-07-31T12:01:00;5.20;;;3.07;;
12925;SDS011;6529;50.566;9.774;2023-07-31T12:03:26;5.80;;;3.23;;
12925;SDS011;6529;50.566;9.774;2023-07-31T12:05:55;5.23;;;2.90;;
12925;SDS011;6529;50.566;9.774;2023-07-31T12:08:21;6.30;;;3.10;;
12925;SDS011;6529;50.566;9.774;2023-07-31T12:10:52;5.87;;;3.03;;
12925;SDS011;6529;50.566;9.774;2023-07-31T12:13:22;6.17;;;2.97;;
12925;SDS011;6529;50.566;9.774;2023-07-31T12:15:53;6.57;;;3.20;;
12925;SDS011;6529;50.566;9.774;2023-07-31T12:18:21;4.57;;;3.13;;
12925;SDS011;6529;50.566;9.774;2023-07-31T12:20:57;6.63;;;2.83;;
12925;SDS011;6529;50.566;9.774;2023-07-31T12:23:27;4.30;;;2.80;;
12925;SDS011;6529;50.566;9.774;2023-07-31T12:26:07;5.90;;;3.00;;
12925;SDS011;6529;50.566;9.774;2023-07-31T12:28:57;5.07;;;3.07;;
12925;SDS011;6529;50.566;9.774;2023-07-31T12:31:22;6.27;;;3.00;;
12925;SDS011;6529;50.566;9.774;2023-07-31T12:33:49;3.77;;;2.90;;
12925;SDS011;6529;50.566;9.774;2023-07-31T12:36:16;5.23;;;2.80;;
12925;SDS011;6529;50.566;9.774;2023-07-31T12:38:43;6.20;;;2.90;;
12925;SDS011;6529;50.566;9.774;2023-07-31T12:41:09;4.23;;;2.67;;
12925;SDS011;6529;50.566;9.774;2023-07-31T12:43:36;5.30;;;2.87;;
12925;SDS011;6529;50.566;9.774;2023-07-31T12:46:03;6.83;;;3.00;;
12925;SDS011;6529;50.566;9.774;2023-07-31T12:48:29;6.93;;;2.83;;
12925;SDS011;6529;50.566;9.774;2023-07-31T12:50:57;4.47;;;2.83;;
12925;SDS011;6529;50.566;9.774;2023-07-31T12:53:22;5.17;;;3.27;;
12925;SDS011;6529;50.566;9.774;2023-07-31T12:55:48;4.63;;;2.80;;
12925;SDS011;6529;50.566;9.774;2023-07-31T12:58:14;4.00;;;2.53;;
12925;SDS011;6529;50.566;9.774;2023-07-31T13:00:39;4.17;;;2.70;;
12925;SDS011;6529;50.566;9.774;2023-07-31T13:03:05;4.13;;;2.70;;
12925;SDS011;6529;50.566;9.774;2023-07-31T13:05:30;7.43;;;2.97;;
12925;SDS011;6529;50.566;9.774;2023-07-31T13:07:56;4.13;;;2.80;;
12925;SDS011;6529;50.566;9.774;2023-07-31T13:10:22;4.47;;;3.00;;
12925;SDS011;6529;50.566;9.774;2023-07-31T13:12:49;4.43;;;2.63;;
12925;SDS011;6529;50.566;9.774;2023-07-31T13:15:15;5.27;;;2.70;;
12925;SDS011;6529;50.566;9.774;2023-07-31T13:17:40;3.67;;;2.90;;
12925;SDS011;6529;50.566;9.774;2023-07-31T13:20:06;4.40;;;3.10;;
12925;SDS011;6529;50.566;9.774;2023-07-31T13:22:32;4.63;;;2.67;;
12925;SDS011;6529;50.566;9.774;2023-07-31T13:24:58;3.63;;;2.40;;
12925;SDS011;6529;50.566;9.774;2023-07-31T13:27:24;4.53;;;2.60;;
12925;SDS011;6529;50.566;9.774;2023-07-31T13:29:49;5.20;;;2.90;;
12925;SDS011;6529;50.566;9.774;2023-07-31T13:32:16;6.60;;;3.13;;
12925;SDS011;6529;50.566;9.774;2023-07-31T13:34:43;5.60;;;2.70;;
12925;SDS011;6529;50.566;9.774;2023-07-31T13:37:09;9.03;;;2.90;;
12925;SDS011;6529;50.566;9.774;2023-07-31T13:39:35;6.78;;;2.90;;
12925;SDS011;6529;50.566;9.774;2023-07-31T13:42:02;5.55;;;2.85;;
12925;SDS011;6529;50.566;9.774;2023-07-31T13:44:28;4.85;;;2.97;;
12925;SDS011;6529;50.566;9.774;2023-07-31T13:46:54;4.22;;;2.58;;
12925;SDS011;6529;50.566;9.774;2023-07-31T13:49:19;3.88;;;2.53;;
12925;SDS011;6529;50.566;9.774;2023-07-31T13:51:45;5.10;;;2.97;;
12925;SDS011;6529;50.566;9.774;2023-07-31T13:54:11;5.35;;;2.92;;
12925;SDS011;6529;50.566;9.774;2023-07-31T13:56:37;3.22;;;2.40;;
12925;SDS011;6529;50.566;9.774;2023-07-31T13:59:03;6.43;;;2.97;;
12925;SDS011;6529;50.566;9.774;2023-07-31T14:01:28;2.85;;;2.40;;
12925;SDS011;6529;50.566;9.774;2023-07-31T14:03:54;6.38;;;2.90;;
12925;SDS011;6529;50.566;9.774;2023-07-31T14:06:20;4.95;;;2.53;;
12925;SDS011;6529;50.566;9.774;2023-07-31T14:08:46;6.60;;;2.90;;
12925;SDS011;6529;50.566;9.774;2023-07-31T14:11:11;4.93;;;2.70;;
12925;SDS011;6529;50.566;9.774;2023-07-31T14:13:37;6.40;;;2.70;;
12925;SDS011;6529;50.566;9.774;2023-07-31T14:16:02;4.38;;;2.58;;
12925;SDS011;6529;50.566;9.774;2023-07-31T14:18:28;3.95;;;2.75;;
12925;SDS011;6529;50.566;9.774;2023-07-31T14:20:53;4.40;;;2.78;;
12925;SDS011;6529;50.566;9.774;2023-07-31T14:23:19;5.35;;;2.90;;
12925;SDS011;6529;50.566;9.774;2023-07-31T14:25:45;3.53;;;2.40;;
12925;SDS011;6529;50.566;9.774;2023-07-31T14:28:11;5.05;;;2.63;;
12925;SDS011;6529;50.566;9.774;2023-07-31T14:30:37;3.80;;;2.50;;
12925;SDS011;6529;50.566;9.774;2023-07-31T14:33:02;5.55;;;2.88;;
12925;SDS011;6529;50.566;9.774;2023-07-31T14:35:28;4.65;;;2.70;;
12925;SDS011;6529;50.566;9.774;2023-07-31T14:37:54;3.83;;;2.72;;
12925;SDS011;6529;50.566;9.774;2023-07-31T14:40:20;3.53;;;2.70;;
12925;SDS011;6529;50.566;9.774;2023-07-31T14:42:45;7.15;;;2.53;;
12925;SDS011;6529;50.566;9.774;2023-07-31T14:45:11;4.55;;;2.80;;
12925;SDS011;6529;50.566;9.774;2023-07-31T14:47:36;4.82;;;2.80;;
12925;SDS011;6529;50.566;9.774;2023-07-31T14:50:02;4.60;;;2.47;;
12925;SDS011;6529;50.566;9.774;2023-07-31T14:52:28;4.75;;;3.20;;
12925;SDS011;6529;50.566;9.774;2023-07-31T14:54:54;4.93;;;2.78;;
12925;SDS011;6529;50.566;9.774;2023-07-31T14:57:20;5.53;;;2.75;;
12925;SDS011;6529;50.566;9.774;2023-07-31T14:59:46;5.47;;;2.40;;
12925;SDS011;6529;50.566;9.774;2023-07-31T15:02:12;4.85;;;2.88;;
12925;SDS011;6529;50.566;9.774;2023-07-31T15:04:37;4.47;;;2.60;;